createdAt,value
2022-12-08T00:01:09.529Z,96.42
2022-12-08T00:03:37.103Z,97.08
2022-12-08T00:06:24.276Z,97.61
2022-12-08T00:09:09.859Z,98.03
2022-12-08T00:11:37.257Z,97.67
2022-12-08T00:14:03.971Z,97.46
2022-12-08T00:16:30.611Z,97.45
2022-12-08T00:18:57.260Z,97.15
2022-12-08T00:21:23.866Z,97.17
2022-12-08T00:23:50.489Z,96.60
2022-12-08T00:26:17.131Z,97.59
2022-12-08T00:28:43.868Z,97.23
2022-12-08T00:31:12.147Z,97.34
2022-12-08T00:33:39.303Z,97.38
2022-12-08T00:36:11.230Z,97.16
2022-12-08T00:38:38.883Z,97.25
2022-12-08T00:41:17.182Z,97.02
2022-12-08T00:43:44.174Z,96.87
2022-12-08T00:46:12.110Z,97.07
2022-12-08T00:48:39.064Z,98.31
2022-12-08T00:51:05.951Z,99.94
2022-12-08T00:53:32.675Z,98.77
2022-12-08T00:55:59.351Z,98.28
2022-12-08T00:58:25.959Z,98.34
2022-12-08T01:00:52.696Z,98.62
2022-12-08T01:03:19.472Z,98.51
2022-12-08T01:05:46.229Z,99.14
2022-12-08T01:08:12.997Z,99.64
2022-12-08T01:10:39.805Z,99.54
2022-12-08T01:13:06.561Z,99.35
2022-12-08T01:15:33.204Z,99.06
2022-12-08T01:17:59.870Z,98.91
2022-12-08T01:20:26.629Z,99.76
2022-12-08T01:22:53.235Z,99.83
2022-12-08T01:25:19.913Z,99.96
2022-12-08T01:27:46.490Z,99.86
2022-12-08T01:30:13.661Z,100.00
2022-12-08T01:32:40.234Z,100.00
2022-12-08T01:35:07.088Z,99.73
2022-12-08T01:37:33.751Z,99.84
2022-12-08T01:40:00.344Z,99.95
2022-12-08T01:42:27.074Z,100.00
2022-12-08T01:44:57.451Z,100.00
2022-12-08T01:47:28.072Z,100.00
2022-12-08T01:49:54.969Z,100.00
2022-12-08T01:52:37.652Z,99.96
2022-12-08T01:55:11.630Z,99.97
2022-12-08T01:57:44.606Z,99.69
2022-12-08T02:00:14.794Z,99.33
2022-12-08T02:03:01.889Z,98.76
2022-12-08T02:05:34.674Z,99.21
2022-12-08T02:08:06.169Z,98.88
2022-12-08T02:10:36.541Z,98.75
2022-12-08T02:13:05.702Z,98.38
2022-12-08T02:15:37.276Z,98.37
2022-12-08T02:18:14.614Z,97.66
2022-12-08T02:20:44.273Z,97.18
2022-12-08T02:23:31.682Z,96.76
2022-12-08T02:26:26.162Z,96.48
2022-12-08T02:28:58.600Z,95.94
2022-12-08T02:31:54.197Z,96.26
2022-12-08T02:34:58.821Z,96.09
2022-12-08T02:37:32.051Z,96.45
2022-12-08T02:40:25.089Z,96.16
2022-12-08T02:43:07.398Z,96.68
2022-12-08T02:45:41.314Z,96.46
2022-12-08T02:48:09.121Z,96.31
2022-12-08T02:50:35.814Z,96.87
2022-12-08T02:56:17.143Z,97.18
2022-12-08T02:58:55.568Z,97.54
2022-12-08T03:01:25.062Z,97.70
2022-12-08T03:04:26.974Z,97.11
2022-12-08T03:07:04.158Z,97.72
2022-12-08T03:09:42.605Z,97.46
2022-12-08T03:12:26.097Z,97.60
2022-12-08T03:14:55.231Z,97.75
2022-12-08T03:17:26.111Z,97.73
2022-12-08T03:19:54.513Z,97.77
2022-12-08T03:22:24.062Z,98.07
2022-12-08T03:24:51.646Z,98.06
2022-12-08T03:27:22.626Z,98.16
2022-12-08T03:29:52.015Z,100.00
2022-12-08T03:32:36.497Z,99.68
2022-12-08T03:35:13.528Z,99.57
2022-12-08T03:37:41.024Z,99.97
2022-12-08T03:40:11.998Z,100.00
2022-12-08T03:42:38.610Z,100.00
2022-12-08T03:45:06.082Z,100.00
2022-12-08T03:47:32.779Z,100.00
2022-12-08T03:49:59.395Z,100.00
2022-12-08T03:52:25.982Z,100.00
2022-12-08T03:54:52.695Z,100.00
2022-12-08T03:57:19.341Z,100.00
2022-12-08T03:59:45.975Z,100.00
2022-12-08T04:02:12.698Z,100.00
2022-12-08T04:04:39.386Z,100.00
2022-12-08T04:07:06.038Z,100.00
2022-12-08T04:09:32.673Z,100.00
2022-12-08T04:11:59.274Z,100.00
2022-12-08T04:14:26.026Z,100.00
2022-12-08T04:16:52.747Z,100.00
2022-12-08T04:19:19.768Z,100.00
2022-12-08T04:21:46.352Z,100.00
2022-12-08T04:24:12.979Z,100.00
2022-12-08T04:26:39.581Z,100.00
2022-12-08T04:29:06.299Z,100.00
2022-12-08T04:31:32.988Z,100.00
2022-12-08T04:33:59.646Z,100.00
2022-12-08T04:36:26.380Z,100.00
2022-12-08T04:38:53.238Z,100.00
2022-12-08T04:41:20.074Z,100.00
2022-12-08T04:43:46.719Z,100.00
2022-12-08T04:46:13.472Z,100.00
2022-12-08T04:48:41.038Z,100.00
2022-12-08T04:51:15.003Z,100.00
2022-12-08T04:53:46.285Z,100.00
2022-12-08T04:56:15.757Z,100.00
2022-12-08T04:58:42.988Z,100.00
2022-12-08T05:01:09.824Z,100.00
2022-12-08T05:03:37.120Z,100.00
2022-12-08T05:06:04.482Z,100.00
2022-12-08T05:08:31.355Z,100.00
2022-12-08T05:11:07.004Z,100.00
2022-12-08T05:13:33.633Z,100.00
2022-12-08T05:16:05.178Z,100.00
2022-12-08T05:18:31.922Z,100.00
2022-12-08T05:20:58.807Z,100.00
2022-12-08T05:23:26.172Z,100.00
2022-12-08T05:25:52.905Z,100.00
2022-12-08T05:28:40.706Z,100.00
2022-12-08T05:31:06.226Z,100.00
2022-12-08T05:33:32.895Z,100.00
2022-12-08T05:35:59.589Z,100.00
2022-12-08T05:38:26.237Z,100.00
2022-12-08T05:40:52.845Z,100.00
2022-12-08T05:43:19.458Z,100.00
2022-12-08T05:45:46.227Z,100.00
2022-12-08T05:48:12.938Z,100.00
2022-12-08T05:50:40.100Z,100.00
2022-12-08T05:53:06.679Z,100.00
2022-12-08T05:55:33.333Z,99.96
2022-12-08T05:58:03.132Z,100.00
2022-12-08T06:00:34.921Z,99.72
2022-12-08T06:03:01.803Z,99.38
2022-12-08T06:05:28.624Z,99.43
2022-12-08T06:07:55.315Z,98.92
2022-12-08T06:10:21.916Z,99.52
2022-12-08T06:12:48.617Z,99.46
2022-12-08T06:15:15.362Z,100.00
2022-12-08T06:17:42.020Z,99.79
2022-12-08T06:20:09.322Z,99.35
2022-12-08T06:22:36.666Z,98.48
2022-12-08T06:25:07.222Z,97.93
2022-12-08T06:27:36.346Z,98.05
2022-12-08T06:30:03.517Z,98.60
2022-12-08T06:32:30.520Z,99.11
2022-12-08T06:34:57.198Z,99.32
2022-12-08T06:37:23.819Z,98.96
2022-12-08T06:39:50.629Z,99.21
2022-12-08T06:42:35.557Z,98.88
2022-12-08T06:45:02.189Z,98.19
2022-12-08T06:47:28.910Z,98.08
2022-12-08T06:49:55.520Z,98.79
2022-12-08T06:52:22.116Z,98.53
2022-12-08T06:54:48.743Z,99.11
2022-12-08T06:57:15.389Z,99.89
2022-12-08T06:59:42.020Z,99.35
2022-12-08T07:02:09.715Z,99.06
2022-12-08T07:04:36.477Z,99.20
2022-12-08T07:07:03.289Z,98.60
2022-12-08T07:09:30.094Z,98.27
2022-12-08T07:11:56.863Z,98.78
2022-12-08T07:14:24.917Z,98.42
2022-12-08T07:16:52.263Z,98.37
2022-12-08T07:19:19.234Z,97.51
2022-12-08T07:21:46.019Z,97.27
2022-12-08T07:24:13.022Z,97.20
2022-12-08T07:26:39.947Z,96.71
2022-12-08T07:29:07.117Z,96.40
2022-12-08T07:31:33.812Z,96.52
2022-12-08T07:34:00.478Z,97.01
2022-12-08T07:36:27.340Z,96.16
2022-12-08T07:38:54.316Z,96.52
2022-12-08T07:41:24.451Z,96.94
2022-12-08T07:43:53.493Z,95.97
2022-12-08T07:46:22.709Z,96.09
2022-12-08T07:48:49.577Z,95.64
2022-12-08T07:51:17.169Z,94.35
2022-12-08T07:53:50.041Z,93.51
2022-12-08T07:56:20.394Z,93.61
2022-12-08T07:58:47.069Z,93.02
2022-12-08T08:01:28.976Z,92.70
2022-12-08T08:03:57.562Z,93.10
2022-12-08T08:06:24.321Z,89.95
2022-12-08T08:08:51.064Z,88.57
2022-12-08T08:11:21.189Z,90.27
2022-12-08T08:13:49.009Z,90.36
2022-12-08T08:16:16.098Z,88.67
2022-12-08T08:18:43.568Z,87.67
2022-12-08T08:21:43.322Z,86.58
2022-12-08T08:23:56.952Z,83.96
2022-12-08T08:26:23.605Z,83.41
2022-12-08T08:28:50.278Z,79.10
2022-12-08T08:31:17.017Z,73.96
2022-12-08T08:33:43.728Z,64.00
2022-12-08T08:36:10.908Z,69.25
2022-12-08T08:38:42.789Z,69.28
2022-12-08T08:41:10.719Z,72.80
2022-12-08T08:43:38.810Z,73.71
2022-12-08T08:46:06.988Z,74.83
2022-12-08T08:48:33.834Z,76.76
2022-12-08T08:51:10.510Z,76.43
2022-12-08T08:53:38.228Z,78.85
2022-12-08T08:56:15.196Z,78.88
2022-12-08T08:58:42.194Z,82.46
2022-12-08T09:01:08.914Z,83.87
2022-12-08T09:03:35.628Z,81.57
2022-12-08T09:06:02.343Z,80.60
2022-12-08T09:08:29.064Z,80.70
2022-12-08T09:10:55.740Z,81.46
2022-12-08T09:13:22.442Z,81.31
2022-12-08T09:15:49.399Z,80.51
2022-12-08T09:18:16.205Z,80.84
2022-12-08T09:20:42.842Z,79.89
2022-12-08T09:23:09.562Z,79.73
2022-12-08T09:25:36.538Z,77.52
2022-12-08T09:28:03.332Z,78.59
2022-12-08T09:30:29.952Z,77.24
2022-12-08T09:32:56.662Z,77.26
2022-12-08T09:35:23.356Z,76.65
2022-12-08T09:37:49.962Z,75.77
2022-12-08T09:40:20.261Z,75.81
2022-12-08T09:43:06.023Z,77.64
2022-12-08T09:45:35.541Z,80.44
2022-12-08T09:48:17.464Z,79.92
2022-12-08T09:50:49.677Z,78.75
2022-12-08T09:53:22.752Z,77.13
2022-12-08T09:55:56.825Z,77.96
2022-12-08T09:59:15.291Z,76.93
2022-12-08T10:01:42.243Z,75.02
2022-12-08T10:04:26.391Z,74.41
2022-12-08T10:06:58.785Z,80.92
2022-12-08T10:09:37.631Z,81.44
2022-12-08T10:12:18.690Z,82.70
2022-12-08T10:14:57.525Z,84.81
2022-12-08T10:17:27.282Z,82.40
2022-12-08T10:20:07.040Z,80.39
2022-12-08T10:22:38.704Z,79.37
2022-12-08T10:25:25.572Z,79.94
2022-12-08T10:27:54.523Z,79.65
2022-12-08T10:30:22.360Z,83.38
2022-12-08T10:32:51.345Z,80.95
2022-12-08T10:35:20.179Z,82.55
2022-12-08T10:38:01.232Z,83.46
2022-12-08T10:40:36.873Z,84.18
2022-12-08T10:43:07.004Z,84.60
2022-12-08T10:45:41.811Z,81.97
2022-12-08T10:48:31.212Z,79.63
2022-12-08T10:50:59.175Z,79.76
2022-12-08T10:53:27.169Z,81.39
2022-12-08T10:56:07.443Z,82.45
2022-12-08T10:58:46.185Z,80.59
2022-12-08T11:01:26.620Z,79.22
2022-12-08T11:04:00.195Z,80.09
2022-12-08T11:06:32.807Z,81.14
2022-12-08T11:09:02.570Z,81.35
2022-12-08T11:11:45.789Z,85.70
2022-12-08T11:14:45.811Z,85.31
2022-12-08T11:17:16.538Z,86.84
2022-12-08T11:19:55.708Z,85.23
2022-12-08T11:22:25.626Z,87.51
2022-12-08T11:25:07.335Z,86.11
2022-12-08T11:27:36.682Z,86.60
2022-12-08T11:30:18.676Z,85.83
2022-12-08T11:32:52.951Z,85.24
2022-12-08T11:35:30.742Z,86.63
2022-12-08T11:38:21.207Z,84.94
2022-12-08T11:40:53.288Z,86.20
2022-12-08T11:43:35.992Z,87.10
2022-12-08T11:46:15.147Z,88.43
2022-12-08T11:48:51.454Z,87.57
2022-12-08T11:51:57.511Z,88.06
2022-12-08T11:54:30.575Z,87.81
2022-12-08T11:57:08.586Z,87.02
2022-12-08T11:59:41.716Z,87.50
2022-12-08T12:02:15.147Z,87.15
2022-12-08T12:05:04.671Z,87.84
2022-12-08T12:07:58.850Z,86.49
2022-12-08T12:10:48.213Z,86.82
2022-12-08T12:13:17.514Z,86.92
2022-12-08T12:16:02.980Z,85.26
2022-12-08T12:18:29.576Z,87.48
2022-12-08T12:21:04.955Z,86.53
2022-12-08T12:23:40.577Z,85.63
2022-12-08T12:26:16.478Z,85.93
2022-12-08T12:28:53.188Z,86.60
2022-12-08T12:31:25.910Z,85.78
2022-12-08T12:33:56.960Z,86.74
2022-12-08T12:36:25.423Z,85.83
2022-12-08T12:39:06.287Z,85.40
2022-12-08T12:41:41.748Z,86.61
2022-12-08T12:44:14.128Z,86.30
2022-12-08T12:46:54.177Z,84.92
2022-12-08T12:49:39.209Z,84.28
2022-12-08T12:52:25.741Z,84.58
2022-12-08T12:54:52.899Z,85.51
2022-12-08T12:57:19.487Z,85.35
2022-12-08T13:00:05.564Z,85.00
2022-12-08T13:02:46.118Z,84.48
2022-12-08T13:05:19.997Z,84.14
2022-12-08T13:08:00.761Z,83.67
2022-12-08T13:10:33.770Z,82.76
2022-12-08T13:13:12.648Z,83.25
2022-12-08T13:15:47.006Z,83.67
2022-12-08T13:18:36.437Z,83.65
2022-12-08T13:21:09.138Z,81.69
2022-12-08T13:23:38.920Z,81.16
2022-12-08T13:26:08.565Z,80.06
2022-12-08T13:29:03.922Z,77.15
2022-12-08T13:31:48.315Z,75.93
2022-12-08T13:34:23.012Z,75.31
2022-12-08T13:36:57.106Z,76.40
2022-12-08T13:39:42.063Z,77.92
2022-12-08T13:42:27.479Z,77.18
2022-12-08T13:45:33.577Z,79.37
2022-12-08T13:48:55.909Z,77.65
2022-12-08T13:53:34.177Z,75.66
2022-12-08T13:57:16.521Z,71.61
2022-12-08T13:59:45.282Z,69.98
2022-12-08T14:02:17.328Z,68.72
2022-12-08T14:07:33.668Z,67.41
2022-12-08T14:10:03.600Z,67.17
2022-12-08T14:12:31.566Z,67.07
2022-12-08T14:15:03.710Z,66.98
2022-12-08T14:17:34.151Z,67.07
2022-12-08T14:20:19.729Z,66.86
2022-12-08T14:22:46.885Z,68.57
2022-12-08T14:25:17.722Z,66.34
2022-12-08T14:27:45.738Z,67.03
2022-12-08T14:30:13.433Z,66.89
2022-12-08T14:32:52.595Z,67.98
2022-12-08T14:35:26.945Z,69.30
2022-12-08T14:37:59.795Z,70.30
2022-12-08T14:40:36.199Z,71.98
2022-12-08T14:43:05.829Z,72.54
2022-12-08T14:45:34.962Z,73.79
2022-12-08T14:48:38.637Z,73.64
2022-12-08T14:51:13.782Z,73.54
2022-12-08T14:54:02.976Z,72.79
2022-12-08T14:56:51.742Z,72.55
2022-12-08T14:59:39.070Z,72.29
2022-12-08T15:02:26.532Z,71.78
2022-12-08T15:05:22.712Z,72.90
2022-12-08T15:07:55.654Z,72.51
2022-12-08T15:10:29.475Z,72.96
2022-12-08T15:12:57.526Z,73.51
2022-12-08T15:15:24.447Z,73.42
2022-12-08T15:17:58.225Z,72.80
2022-12-08T15:20:35.414Z,73.47
2022-12-08T15:23:02.888Z,74.88
2022-12-08T15:25:29.618Z,75.92
2022-12-08T15:27:58.828Z,75.10
2022-12-08T15:30:29.742Z,75.49
2022-12-08T15:32:56.549Z,76.85
2022-12-08T15:35:23.275Z,76.26
2022-12-08T15:37:50.030Z,76.08
2022-12-08T15:40:21.294Z,75.66
2022-12-08T15:42:48.794Z,75.40
2022-12-08T15:45:16.790Z,76.35
2022-12-08T15:47:45.125Z,76.49
2022-12-08T15:50:16.649Z,76.33
2022-12-08T15:52:43.588Z,76.22
2022-12-08T15:55:15.146Z,76.23
2022-12-08T15:58:38.273Z,76.58
2022-12-08T16:00:52.511Z,77.36
2022-12-08T16:09:23.675Z,77.65
2022-12-08T16:12:10.306Z,77.90
2022-12-08T16:17:25.669Z,78.17
2022-12-08T16:19:52.347Z,78.14
2022-12-08T16:22:54.148Z,78.28
2022-12-08T16:25:19.479Z,78.87
2022-12-08T16:28:23.069Z,78.72
2022-12-08T16:30:35.944Z,79.65
2022-12-08T16:33:02.712Z,80.30
2022-12-08T16:35:29.612Z,80.35
2022-12-08T16:37:56.256Z,80.42
2022-12-08T16:40:23.065Z,81.53
2022-12-08T16:42:50.402Z,81.95
2022-12-08T16:45:26.122Z,81.92
2022-12-08T16:47:56.372Z,83.51
2022-12-08T16:50:28.629Z,83.57
2022-12-08T16:53:21.799Z,83.98
2022-12-08T16:55:49.629Z,83.21
2022-12-08T16:58:18.406Z,83.30
2022-12-08T17:00:45.615Z,83.04
2022-12-08T17:03:14.853Z,83.55
2022-12-08T17:05:41.672Z,83.63
2022-12-08T17:08:08.375Z,83.52
2022-12-08T17:10:39.356Z,83.89
2022-12-08T17:13:06.034Z,84.05
2022-12-08T17:15:32.763Z,83.97
2022-12-08T17:17:59.346Z,83.91
2022-12-08T17:20:28.027Z,84.71
2022-12-08T17:22:56.678Z,84.64
2022-12-08T17:25:24.090Z,84.67
2022-12-08T17:27:51.210Z,85.02
2022-12-08T17:30:19.015Z,84.76
2022-12-08T17:32:45.739Z,85.19
2022-12-08T17:35:13.299Z,85.09
2022-12-08T17:37:40.521Z,86.07
2022-12-08T17:40:08.311Z,85.74
2022-12-08T17:42:35.171Z,85.94
2022-12-08T17:45:01.799Z,85.80
2022-12-08T17:47:28.533Z,85.78
2022-12-08T17:49:56.151Z,85.92
2022-12-08T17:52:22.838Z,85.56
2022-12-08T17:54:49.547Z,85.77
2022-12-08T17:57:16.179Z,85.98
2022-12-08T17:59:42.873Z,86.68
2022-12-08T18:02:10.968Z,86.59
2022-12-08T18:04:37.743Z,86.74
2022-12-08T18:07:04.497Z,86.77
2022-12-08T18:09:31.663Z,87.00
2022-12-08T18:11:58.353Z,87.21
2022-12-08T18:14:26.012Z,87.11
2022-12-08T18:16:52.744Z,87.44
2022-12-08T18:19:19.505Z,87.29
2022-12-08T18:21:46.201Z,87.95
2022-12-08T18:24:19.196Z,87.65
2022-12-08T18:26:46.613Z,87.46
2022-12-08T18:29:13.371Z,88.45
2022-12-08T18:31:40.185Z,88.29
2022-12-08T18:34:06.898Z,88.35
2022-12-08T18:36:33.653Z,88.48
2022-12-08T18:39:01.633Z,88.53
2022-12-08T18:41:31.307Z,88.38
2022-12-08T18:43:58.088Z,88.52
2022-12-08T18:46:25.366Z,88.27
2022-12-08T18:48:52.696Z,88.61
2022-12-08T18:51:24.413Z,88.37
2022-12-08T18:53:51.982Z,88.88
2022-12-08T18:56:27.854Z,88.89
2022-12-08T18:59:03.617Z,89.46
2022-12-08T19:01:35.927Z,89.11
2022-12-08T19:04:27.502Z,89.42
2022-12-08T19:06:52.571Z,88.98
2022-12-08T19:09:19.594Z,89.09
2022-12-08T19:11:46.383Z,89.57
2022-12-08T19:14:13.106Z,88.88
2022-12-08T19:16:39.863Z,89.65
2022-12-08T19:19:06.546Z,89.26
2022-12-08T19:21:33.491Z,89.60
2022-12-08T19:24:00.341Z,90.66
2022-12-08T19:26:28.131Z,91.05
2022-12-08T19:28:55.104Z,90.92
2022-12-08T19:31:21.920Z,91.11
2022-12-08T19:33:48.755Z,90.77
2022-12-08T19:36:18.319Z,91.71
2022-12-08T19:39:03.558Z,91.53
2022-12-08T19:41:49.003Z,91.44
2022-12-08T19:44:52.296Z,91.28
2022-12-08T19:47:20.919Z,91.74
2022-12-08T19:49:47.701Z,92.42
2022-12-08T19:52:14.430Z,91.85
2022-12-08T19:54:41.114Z,92.52
2022-12-08T19:57:07.761Z,92.09
2022-12-08T19:59:34.388Z,91.87
2022-12-08T20:02:01.238Z,91.98
2022-12-08T20:04:28.020Z,91.26
2022-12-08T20:06:56.608Z,91.19
2022-12-08T20:09:24.606Z,91.33
2022-12-08T20:11:54.576Z,91.57
2022-12-08T20:14:22.952Z,91.35
2022-12-08T20:16:50.381Z,90.71
2022-12-08T20:19:17.744Z,90.92
2022-12-08T20:21:44.577Z,91.94
2022-12-08T20:24:11.343Z,91.97
2022-12-08T20:26:38.084Z,92.64
2022-12-08T20:29:04.767Z,91.31
2022-12-08T20:31:32.557Z,92.13
2022-12-08T20:33:59.616Z,92.43
2022-12-08T20:36:26.361Z,92.35
2022-12-08T20:38:54.609Z,92.54
2022-12-08T20:41:23.468Z,92.56
2022-12-08T20:43:51.139Z,92.98
2022-12-08T20:46:18.964Z,93.09
2022-12-08T20:48:45.783Z,92.90
2022-12-08T20:51:18.099Z,92.42
2022-12-08T20:53:45.372Z,92.73
2022-12-08T20:56:22.012Z,92.52
2022-12-08T20:58:49.600Z,92.04
2022-12-08T21:01:19.087Z,92.38
2022-12-08T21:03:46.741Z,91.49
2022-12-08T21:06:14.667Z,91.53
2022-12-08T21:08:42.300Z,91.69
2022-12-08T21:11:10.021Z,91.54
2022-12-08T21:13:38.203Z,91.43
2022-12-08T21:16:05.652Z,91.54
2022-12-08T21:18:38.869Z,91.53
2022-12-08T21:21:08.900Z,91.30
2022-12-08T21:23:35.965Z,91.40
2022-12-08T21:26:03.834Z,91.23
2022-12-08T21:28:30.698Z,90.83
2022-12-08T21:30:57.454Z,90.78
2022-12-08T21:33:24.307Z,90.62
2022-12-08T21:35:51.646Z,91.65
2022-12-08T21:38:18.514Z,92.01
2022-12-08T21:40:45.440Z,92.40
2022-12-08T21:43:13.644Z,91.21
2022-12-08T21:45:40.571Z,90.85
2022-12-08T21:48:11.730Z,91.30
2022-12-08T21:50:39.032Z,91.58
2022-12-08T21:53:05.866Z,91.48
2022-12-08T21:55:32.602Z,91.19
2022-12-08T21:58:00.972Z,91.44
2022-12-08T22:00:28.097Z,91.21
2022-12-08T22:02:55.114Z,91.39
2022-12-08T22:05:22.008Z,91.11
2022-12-08T22:07:48.927Z,91.91
2022-12-08T22:10:15.759Z,91.30
2022-12-08T22:12:42.618Z,91.32
2022-12-08T22:15:11.075Z,90.88
2022-12-08T22:17:43.322Z,90.82
2022-12-08T22:20:13.024Z,90.22
2022-12-08T22:22:40.564Z,90.12
2022-12-08T22:25:11.923Z,89.95
2022-12-08T22:27:39.657Z,90.41
2022-12-08T22:30:07.486Z,90.42
2022-12-08T22:32:37.709Z,90.55
2022-12-08T22:35:04.677Z,90.84
2022-12-08T22:37:31.291Z,90.34
2022-12-08T22:39:58.103Z,90.72
2022-12-08T22:42:25.007Z,90.47
2022-12-08T22:44:51.603Z,90.44
2022-12-08T22:47:18.318Z,90.85
2022-12-08T22:49:45.208Z,91.39
2022-12-08T22:52:11.904Z,91.89
2022-12-08T22:54:38.504Z,91.58
2022-12-08T22:57:05.233Z,91.23
2022-12-08T22:59:33.342Z,91.82
2022-12-08T23:02:00.321Z,91.55
2022-12-08T23:04:27.410Z,91.52
2022-12-08T23:06:54.223Z,91.37
2022-12-08T23:09:21.579Z,91.40
2022-12-08T23:11:48.423Z,91.26
2022-12-08T23:14:15.226Z,91.27
2022-12-08T23:16:42.104Z,91.43
2022-12-08T23:19:08.831Z,91.55
2022-12-08T23:21:35.766Z,91.70
2022-12-08T23:24:03.077Z,91.56
2022-12-08T23:26:32.527Z,92.96
2022-12-08T23:28:59.689Z,92.84
2022-12-08T23:31:27.553Z,92.65
2022-12-08T23:33:54.940Z,93.59
2022-12-08T23:36:26.259Z,95.79
2022-12-08T23:38:54.308Z,94.57
2022-12-08T23:41:21.060Z,94.98
2022-12-08T23:43:50.070Z,95.29
2022-12-08T23:46:19.462Z,95.67
2022-12-08T23:48:46.515Z,96.33
2022-12-08T23:51:14.158Z,95.86
2022-12-08T23:53:41.575Z,96.41
2022-12-08T23:56:12.124Z,96.35
2022-12-08T23:58:39.301Z,96.66
